createdAt,value
2018-07-09T00:00:36.583Z,6.27
2018-07-09T00:03:06.707Z,7.70
2018-07-09T00:05:36.724Z,5.97
2018-07-09T00:08:04.490Z,7.73
2018-07-09T00:10:43.468Z,5.57
2018-07-09T00:13:10.874Z,7.73
2018-07-09T00:15:38.292Z,6.77
2018-07-09T00:18:05.764Z,3.80
2018-07-09T00:20:33.443Z,6.67
2018-07-09T00:23:01.097Z,5.23
2018-07-09T00:25:28.681Z,6.23
2018-07-09T00:27:56.087Z,5.87
2018-07-09T00:30:23.600Z,8.43
2018-07-09T00:32:57.738Z,6.30
2018-07-09T00:35:25.554Z,5.17
2018-07-09T00:37:52.960Z,5.93
2018-07-09T00:40:20.370Z,5.90
2018-07-09T00:42:48.337Z,5.70
2018-07-09T00:45:15.886Z,5.10
2018-07-09T00:47:43.319Z,4.43
2018-07-09T00:50:10.717Z,4.87
2018-07-09T00:52:38.156Z,7.77
2018-07-09T00:55:05.728Z,4.93
2018-07-09T00:57:33.338Z,4.53
2018-07-09T01:00:00.747Z,4.80
2018-07-09T01:02:28.309Z,6.63
2018-07-09T01:04:55.712Z,4.97
2018-07-09T01:07:23.118Z,5.47
2018-07-09T01:09:50.554Z,5.43
2018-07-09T01:12:17.991Z,5.70
2018-07-09T01:14:45.415Z,4.53
2018-07-09T01:17:12.831Z,5.27
2018-07-09T01:19:40.305Z,4.33
2018-07-09T01:22:07.699Z,5.93
2018-07-09T01:24:35.098Z,3.93
2018-07-09T01:27:02.595Z,5.73
2018-07-09T01:29:30.021Z,6.57
2018-07-09T01:31:57.420Z,6.07
2018-07-09T01:34:24.805Z,6.70
2018-07-09T01:36:52.327Z,5.37
2018-07-09T01:39:19.728Z,6.13
2018-07-09T01:41:47.295Z,4.47
2018-07-09T01:44:14.718Z,5.90
2018-07-09T01:46:42.127Z,4.53
2018-07-09T01:49:09.514Z,4.57
2018-07-09T01:51:36.944Z,5.73
2018-07-09T01:54:04.392Z,5.60
2018-07-09T01:56:31.772Z,6.23
2018-07-09T01:58:59.143Z,4.13
2018-07-09T02:01:26.574Z,5.43
2018-07-09T02:03:53.999Z,5.67
2018-07-09T02:06:21.413Z,5.53
2018-07-09T02:08:48.795Z,5.53
2018-07-09T02:11:16.171Z,5.60
2018-07-09T02:13:43.551Z,5.87
2018-07-09T02:16:10.968Z,5.50
2018-07-09T02:18:38.383Z,6.13
2018-07-09T02:21:05.843Z,6.57
2018-07-09T02:23:33.202Z,7.90
2018-07-09T02:26:00.609Z,5.73
2018-07-09T02:28:28.029Z,6.23
2018-07-09T02:30:55.605Z,5.90
2018-07-09T02:33:22.991Z,14.30
2018-07-09T02:35:50.440Z,5.97
2018-07-09T02:40:52.418Z,7.43
2018-07-09T02:43:19.963Z,8.60
2018-07-09T02:45:47.412Z,6.37
2018-07-09T02:48:14.826Z,8.67
2018-07-09T02:50:42.267Z,6.83
2018-07-09T02:53:09.737Z,6.90
2018-07-09T02:55:37.143Z,6.73
2018-07-09T02:58:04.900Z,6.23
2018-07-09T03:00:32.372Z,6.37
2018-07-09T03:02:59.767Z,8.63
2018-07-09T03:05:27.176Z,9.33
2018-07-09T03:07:54.598Z,6.90
2018-07-09T03:10:22.035Z,6.23
2018-07-09T03:12:49.479Z,5.93
2018-07-09T03:15:16.903Z,6.83
2018-07-09T03:17:44.317Z,5.47
2018-07-09T03:20:11.774Z,6.17
2018-07-09T03:22:39.483Z,7.13
2018-07-09T03:25:06.889Z,7.17
2018-07-09T03:27:34.321Z,5.47
2018-07-09T03:30:01.749Z,7.20
2018-07-09T03:32:29.163Z,6.50
2018-07-09T03:34:56.565Z,7.30
2018-07-09T03:37:23.996Z,6.00
2018-07-09T03:39:51.403Z,7.37
2018-07-09T03:42:19.018Z,5.53
2018-07-09T03:44:46.414Z,5.40
2018-07-09T03:47:13.852Z,5.17
2018-07-09T03:52:15.401Z,5.40
2018-07-09T03:54:42.814Z,6.10
2018-07-09T03:57:10.221Z,4.67
2018-07-09T03:59:37.659Z,4.87
2018-07-09T04:02:05.133Z,5.93
2018-07-09T04:04:32.559Z,9.80
2018-07-09T04:07:00.006Z,7.30
2018-07-09T04:09:27.382Z,5.17
2018-07-09T04:11:54.828Z,5.93
2018-07-09T04:14:22.264Z,5.33
2018-07-09T04:16:49.667Z,5.27
2018-07-09T04:19:17.093Z,5.93
2018-07-09T04:21:44.511Z,7.53
2018-07-09T04:24:11.915Z,8.63
2018-07-09T04:26:39.354Z,7.87
2018-07-09T04:29:06.785Z,7.17
2018-07-09T04:31:34.169Z,8.63
2018-07-09T04:34:01.564Z,8.53
2018-07-09T04:36:28.987Z,7.90
2018-07-09T04:39:55.936Z,9.17
2018-07-09T04:42:23.374Z,8.10
2018-07-09T04:44:50.814Z,7.00
2018-07-09T04:47:18.247Z,7.53
2018-07-09T04:49:45.664Z,9.17
2018-07-09T04:52:13.080Z,7.83
2018-07-09T04:54:40.527Z,8.17
2018-07-09T04:57:07.931Z,9.67
2018-07-09T04:59:35.521Z,7.80
2018-07-09T05:02:02.974Z,9.33
2018-07-09T05:04:30.379Z,10.77
2018-07-09T05:06:57.810Z,7.10
2018-07-09T05:09:25.240Z,7.87
2018-07-09T05:11:52.658Z,6.90
2018-07-09T05:14:20.142Z,8.23
2018-07-09T05:16:47.557Z,9.43
2018-07-09T05:19:15.002Z,7.27
2018-07-09T05:21:42.431Z,9.43
2018-07-09T05:24:09.846Z,9.10
2018-07-09T05:26:37.296Z,7.10
2018-07-09T05:29:04.695Z,7.57
2018-07-09T05:31:32.100Z,6.77
2018-07-09T05:33:59.522Z,7.67
2018-07-09T05:36:26.949Z,6.90
2018-07-09T05:38:54.400Z,6.90
2018-07-09T05:41:21.893Z,6.50
2018-07-09T05:43:49.333Z,10.87
2018-07-09T05:46:16.748Z,8.53
2018-07-09T05:48:44.315Z,7.33
2018-07-09T05:51:11.756Z,8.77
2018-07-09T05:53:39.171Z,7.17
2018-07-09T05:56:06.822Z,6.50
2018-07-09T05:58:34.242Z,7.53
2018-07-09T06:01:01.679Z,9.70
2018-07-09T06:03:29.089Z,9.17
2018-07-09T06:05:56.531Z,9.03
2018-07-09T06:08:23.969Z,8.13
2018-07-09T06:10:51.411Z,8.50
2018-07-09T06:13:18.853Z,8.33
2018-07-09T06:15:46.292Z,8.00
2018-07-09T06:18:15.544Z,7.17
2018-07-09T06:20:43.047Z,6.60
2018-07-09T06:23:10.567Z,7.63
2018-07-09T06:25:37.961Z,8.57
2018-07-09T06:28:05.489Z,6.93
2018-07-09T06:30:33.032Z,6.73
2018-07-09T06:33:00.465Z,9.93
2018-07-09T06:35:28.056Z,8.23
2018-07-09T06:37:55.486Z,11.23
2018-07-09T06:40:23.003Z,9.57
2018-07-09T06:42:50.396Z,7.40
2018-07-09T06:45:17.968Z,7.60
2018-07-09T06:47:45.430Z,6.93
2018-07-09T06:50:12.815Z,8.57
2018-07-09T06:52:40.259Z,5.50
2018-07-09T06:55:07.699Z,9.80
2018-07-09T06:57:35.120Z,7.50
2018-07-09T07:00:02.741Z,9.77
2018-07-09T07:02:30.198Z,7.83
2018-07-09T07:04:57.721Z,7.03
2018-07-09T07:07:25.155Z,8.03
2018-07-09T07:09:52.693Z,9.27
2018-07-09T07:12:20.230Z,5.97
2018-07-09T07:14:47.680Z,8.50
2018-07-09T07:17:15.280Z,9.27
2018-07-09T07:19:42.739Z,5.73
2018-07-09T07:22:10.119Z,6.93
2018-07-09T07:24:37.567Z,8.50
2018-07-09T07:27:05.210Z,5.20
2018-07-09T07:29:32.645Z,5.53
2018-07-09T07:32:00.091Z,6.03
2018-07-09T07:34:27.532Z,4.67
2018-07-09T07:36:55.189Z,4.47
2018-07-09T07:39:22.665Z,4.73
2018-07-09T07:41:50.123Z,5.30
2018-07-09T07:44:17.672Z,4.10
2018-07-09T07:46:45.151Z,4.43
2018-07-09T07:49:12.589Z,8.37
2018-07-09T07:51:39.993Z,4.97
2018-07-09T07:54:07.411Z,6.07
2018-07-09T07:56:34.852Z,5.50
2018-07-09T07:59:03.232Z,4.57
2018-07-09T08:01:30.644Z,5.63
2018-07-09T08:03:58.102Z,3.40
2018-07-09T08:06:25.509Z,4.27
2018-07-09T08:08:52.987Z,4.10
2018-07-09T08:11:20.451Z,4.60
2018-07-09T08:13:47.910Z,3.37
2018-07-09T08:16:15.486Z,3.87
2018-07-09T08:18:42.954Z,3.77
2018-07-09T08:21:10.402Z,4.47
2018-07-09T08:23:38.124Z,3.80
2018-07-09T08:26:05.563Z,5.73
2018-07-09T08:28:32.976Z,3.30
2018-07-09T08:31:00.704Z,4.10
2018-07-09T08:33:28.244Z,3.83
2018-07-09T08:35:56.054Z,5.67
2018-07-09T08:38:23.452Z,5.13
2018-07-09T08:40:50.976Z,3.50
2018-07-09T08:43:18.395Z,6.40
2018-07-09T08:45:45.838Z,5.33
2018-07-09T08:48:13.247Z,2.87
2018-07-09T08:50:40.623Z,3.73
2018-07-09T08:53:08.039Z,3.03
2018-07-09T08:55:35.778Z,3.23
2018-07-09T08:58:03.205Z,4.43
2018-07-09T09:00:31.691Z,4.97
2018-07-09T09:02:59.104Z,5.53
2018-07-09T09:05:26.497Z,3.93
2018-07-09T09:07:53.933Z,6.83
2018-07-09T09:10:21.392Z,2.87
2018-07-09T09:12:48.816Z,5.67
2018-07-09T09:15:16.223Z,2.80
2018-07-09T09:17:43.713Z,4.63
2018-07-09T09:20:11.135Z,2.43
2018-07-09T09:22:38.725Z,6.93
2018-07-09T09:25:06.182Z,4.13
2018-07-09T09:27:33.624Z,3.07
2018-07-09T09:30:01.051Z,3.43
2018-07-09T09:32:28.905Z,3.30
2018-07-09T09:34:56.319Z,5.70
2018-07-09T09:37:23.849Z,4.27
2018-07-09T09:39:51.248Z,3.80
2018-07-09T09:42:18.940Z,3.10
2018-07-09T09:44:46.386Z,3.77
2018-07-09T09:47:13.883Z,4.03
2018-07-09T09:49:41.290Z,4.40
2018-07-09T09:52:08.679Z,4.03
2018-07-09T09:54:36.100Z,4.22
2018-07-09T09:57:03.667Z,3.03
2018-07-09T09:59:31.093Z,3.02
2018-07-09T10:01:58.505Z,5.23
2018-07-09T10:04:25.888Z,5.63
2018-07-09T10:06:53.349Z,4.35
2018-07-09T10:09:21.179Z,3.33
2018-07-09T10:11:48.623Z,4.00
2018-07-09T10:14:16.016Z,3.90
2018-07-09T10:16:43.915Z,4.05
2018-07-09T10:19:11.419Z,4.35
2018-07-09T10:21:38.883Z,3.83
2018-07-09T10:24:06.966Z,5.83
2018-07-09T10:26:34.812Z,3.10
2018-07-09T10:29:02.279Z,4.30
2018-07-09T10:31:29.725Z,3.97
2018-07-09T10:33:57.119Z,3.10
2018-07-09T10:36:24.508Z,3.80
2018-07-09T10:38:51.971Z,3.80
2018-07-09T10:41:19.347Z,4.00
2018-07-09T10:43:46.758Z,2.83
2018-07-09T10:46:14.197Z,2.87
2018-07-09T10:48:41.639Z,3.05
2018-07-09T10:51:09.896Z,4.62
2018-07-09T10:53:37.295Z,3.15
2018-07-09T10:56:05.185Z,3.90
2018-07-09T10:58:32.688Z,2.65
2018-07-09T11:01:00.140Z,4.40
2018-07-09T11:03:27.547Z,5.12
2018-07-09T11:05:54.996Z,3.20
2018-07-09T11:08:22.403Z,4.10
2018-07-09T11:10:49.844Z,3.40
2018-07-09T11:13:17.273Z,4.15
2018-07-09T11:15:44.723Z,4.33
2018-07-09T11:18:12.125Z,3.85
2018-07-09T11:20:39.560Z,5.28
2018-07-09T11:23:07.000Z,3.10
2018-07-09T11:25:34.611Z,2.67
2018-07-09T11:28:02.020Z,4.20
2018-07-09T11:30:29.463Z,3.30
2018-07-09T11:32:56.876Z,3.77
2018-07-09T11:35:24.272Z,3.10
2018-07-09T11:37:51.715Z,2.40
2018-07-09T11:40:19.135Z,2.58
2018-07-09T11:42:46.542Z,3.08
2018-07-09T11:45:13.974Z,2.47
2018-07-09T11:47:41.432Z,2.40
2018-07-09T11:50:08.883Z,3.27
2018-07-09T11:52:36.267Z,2.22
2018-07-09T11:55:03.826Z,2.50
2018-07-09T11:57:31.288Z,2.52
2018-07-09T11:59:58.755Z,2.05
2018-07-09T12:02:26.182Z,2.45
2018-07-09T12:04:53.667Z,2.45
2018-07-09T12:07:21.052Z,2.02
2018-07-09T12:09:48.476Z,2.72
2018-07-09T12:12:15.889Z,1.98
2018-07-09T12:14:43.314Z,3.70
2018-07-09T12:17:10.751Z,1.85
2018-07-09T12:19:38.151Z,3.22
2018-07-09T12:22:05.631Z,1.70
2018-07-09T12:24:33.040Z,2.02
2018-07-09T12:27:00.501Z,2.50
2018-07-09T12:29:27.899Z,3.27
2018-07-09T12:31:55.304Z,1.73
2018-07-09T12:34:22.754Z,2.57
2018-07-09T12:36:50.207Z,2.17
2018-07-09T12:39:17.606Z,2.43
2018-07-09T12:41:45.019Z,3.03
2018-07-09T12:44:12.913Z,2.57
2018-07-09T12:46:40.425Z,1.98
2018-07-09T12:49:11.727Z,3.37
2018-07-09T12:51:39.616Z,1.95
2018-07-09T12:54:07.079Z,2.10
2018-07-09T12:56:34.943Z,2.65
2018-07-09T12:59:02.823Z,3.70
2018-07-09T13:01:30.315Z,1.80
2018-07-09T13:03:57.710Z,1.82
2018-07-09T13:06:25.093Z,1.67
2018-07-09T13:08:52.498Z,3.03
2018-07-09T13:11:19.987Z,2.50
2018-07-09T13:13:47.411Z,1.67
2018-07-09T13:16:14.814Z,1.60
2018-07-09T13:18:42.248Z,3.73
2018-07-09T13:21:09.684Z,1.97
2018-07-09T13:23:37.161Z,1.53
2018-07-09T13:26:04.679Z,1.27
2018-07-09T13:28:32.131Z,2.37
2018-07-09T13:30:59.625Z,6.17
2018-07-09T13:33:27.038Z,1.77
2018-07-09T13:35:54.522Z,3.17
2018-07-09T13:38:21.971Z,1.60
2018-07-09T13:40:49.421Z,2.00
2018-07-09T13:43:17.089Z,2.40
2018-07-09T13:45:44.484Z,2.43
2018-07-09T13:48:11.944Z,1.53
2018-07-09T13:50:39.415Z,2.33
2018-07-09T13:53:06.836Z,1.50
2018-07-09T13:55:34.364Z,1.77
2018-07-09T13:58:01.857Z,1.40
2018-07-09T14:00:29.271Z,1.30
2018-07-09T14:02:56.714Z,2.70
2018-07-09T14:05:24.119Z,2.30
2018-07-09T14:07:51.527Z,1.47
2018-07-09T14:10:19.053Z,1.90
2018-07-09T14:12:46.396Z,2.57
2018-07-09T14:15:13.818Z,1.67
2018-07-09T14:17:42.078Z,1.70
2018-07-09T14:20:26.033Z,2.33
2018-07-09T14:22:53.752Z,1.60
2018-07-09T14:25:22.787Z,1.90
2018-07-09T14:27:50.420Z,2.33
2018-07-09T14:30:19.437Z,1.87
2018-07-09T14:32:47.326Z,3.47
2018-07-09T14:35:16.874Z,2.10
2018-07-09T14:37:44.549Z,2.23
2018-07-09T14:40:12.880Z,2.40
2018-07-09T14:42:40.320Z,2.13
2018-07-09T14:45:09.941Z,1.80
2018-07-09T14:47:37.370Z,1.93
2018-07-09T14:50:04.802Z,2.30
2018-07-09T14:52:32.227Z,2.10
2018-07-09T14:54:59.928Z,1.63
2018-07-09T14:57:27.449Z,3.60
2018-07-09T14:59:54.893Z,2.20
2018-07-09T15:02:22.433Z,1.73
2018-07-09T15:04:50.652Z,1.60
2018-07-09T15:07:18.119Z,2.53
2018-07-09T15:09:45.538Z,1.83
2018-07-09T15:12:12.929Z,2.10
2018-07-09T15:14:40.284Z,1.90
2018-07-09T15:17:08.040Z,2.30
2018-07-09T15:19:35.491Z,2.10
2018-07-09T15:22:02.936Z,2.20
2018-07-09T15:24:30.559Z,3.23
2018-07-09T15:26:58.278Z,2.03
2018-07-09T15:29:25.648Z,2.20
2018-07-09T15:32:04.810Z,2.10
2018-07-09T15:34:32.733Z,1.90
2018-07-09T15:37:00.748Z,1.80
2018-07-09T15:39:29.894Z,2.23
2018-07-09T15:41:57.398Z,2.23
2018-07-09T15:44:24.760Z,2.10
2018-07-09T15:46:52.315Z,2.37
2018-07-09T15:49:19.701Z,2.07
2018-07-09T15:51:47.123Z,2.20
2018-07-09T15:54:14.488Z,3.03
2018-07-09T15:56:41.910Z,2.63
2018-07-09T15:59:09.311Z,2.10
2018-07-09T16:01:36.699Z,2.30
2018-07-09T16:04:04.370Z,2.40
2018-07-09T16:06:31.934Z,2.20
2018-07-09T16:08:59.436Z,3.07
2018-07-09T16:11:26.838Z,3.73
2018-07-09T16:13:54.239Z,2.63
2018-07-09T16:16:21.990Z,2.80
2018-07-09T16:18:49.378Z,2.73
2018-07-09T16:21:16.819Z,2.60
2018-07-09T16:23:44.241Z,3.53
2018-07-09T16:26:11.711Z,3.13
2018-07-09T16:28:39.045Z,3.57
2018-07-09T16:31:06.441Z,2.80
2018-07-09T16:33:33.792Z,2.70
2018-07-09T16:36:01.421Z,3.70
2018-07-09T16:38:28.843Z,4.13
2018-07-09T16:40:56.536Z,4.90
2018-07-09T16:43:24.126Z,5.60
2018-07-09T16:45:51.982Z,5.80
2018-07-09T16:48:19.761Z,3.60
2018-07-09T16:50:47.505Z,2.90
2018-07-09T16:53:15.280Z,4.00
2018-07-09T16:55:42.705Z,3.20
2018-07-09T16:58:10.052Z,3.07
2018-07-09T17:00:37.487Z,3.50
2018-07-09T17:03:05.008Z,3.30
2018-07-09T17:05:32.419Z,3.03
2018-07-09T17:07:59.929Z,4.90
2018-07-09T17:10:27.295Z,3.40
2018-07-09T17:12:54.676Z,4.57
2018-07-09T17:15:22.095Z,3.57
2018-07-09T17:17:49.454Z,3.20
2018-07-09T17:20:17.083Z,3.77
2018-07-09T17:22:44.531Z,3.87
2018-07-09T17:25:11.956Z,4.23
2018-07-09T17:27:39.311Z,4.70
2018-07-09T17:30:06.721Z,4.57
2018-07-09T17:32:34.220Z,3.93
2018-07-09T17:35:01.511Z,3.67
2018-07-09T17:37:28.880Z,3.50
2018-07-09T17:39:56.460Z,3.30
2018-07-09T17:42:23.925Z,4.33
2018-07-09T17:44:51.312Z,3.80
2018-07-09T17:47:18.700Z,3.73
2018-07-09T17:49:46.141Z,5.57
2018-07-09T17:52:14.099Z,3.47
2018-07-09T17:54:41.539Z,5.17
2018-07-09T17:57:08.919Z,3.83
2018-07-09T17:59:36.286Z,3.40
2018-07-09T18:02:03.710Z,4.53
2018-07-09T18:04:31.096Z,3.73
2018-07-09T18:06:58.543Z,4.30
2018-07-09T18:09:25.945Z,3.50
2018-07-09T18:11:53.344Z,3.63
2018-07-09T18:14:20.713Z,3.97
2018-07-09T18:16:48.082Z,6.20
2018-07-09T18:19:15.487Z,3.83
2018-07-09T18:21:42.892Z,6.97
2018-07-09T18:24:10.315Z,4.60
2018-07-09T18:26:37.702Z,6.80
2018-07-09T18:29:05.050Z,7.80
2018-07-09T18:31:32.426Z,4.43
2018-07-09T18:33:59.884Z,3.13
2018-07-09T18:36:27.318Z,7.73
2018-07-09T18:38:54.828Z,4.50
2018-07-09T18:41:22.179Z,3.80
2018-07-09T18:43:49.570Z,4.10
2018-07-09T18:46:16.991Z,4.87
2018-07-09T18:48:44.510Z,5.70
2018-07-09T18:51:11.771Z,5.50
2018-07-09T18:53:39.174Z,4.23
2018-07-09T18:56:06.552Z,5.83
2018-07-09T18:58:34.142Z,5.10
2018-07-09T19:01:01.372Z,5.07
2018-07-09T19:03:28.785Z,5.63
2018-07-09T19:07:02.821Z,4.80
2018-07-09T19:09:30.927Z,4.83
2018-07-09T19:12:00.448Z,5.53
2018-07-09T19:14:35.252Z,6.20
2018-07-09T19:17:48.919Z,4.93
2018-07-09T19:20:27.948Z,6.33
2018-07-09T19:22:54.391Z,4.87
2018-07-09T19:25:20.853Z,4.67
2018-07-09T19:27:47.349Z,6.47
2018-07-09T19:30:13.805Z,6.60
2018-07-09T19:32:40.392Z,4.57
2018-07-09T19:35:06.861Z,5.33
2018-07-09T19:37:33.560Z,3.37
2018-07-09T19:39:59.767Z,3.60
2018-07-09T19:42:26.212Z,2.70
2018-07-09T19:44:52.665Z,5.50
2018-07-09T19:47:19.296Z,5.57
2018-07-09T19:49:45.723Z,6.37
2018-07-09T19:52:12.169Z,4.23
2018-07-09T19:54:38.575Z,3.63
2018-07-09T19:57:05.019Z,4.53
2018-07-09T19:59:31.555Z,3.27
2018-07-09T20:01:58.002Z,4.53
2018-07-09T20:04:24.469Z,3.50
2018-07-09T20:06:50.919Z,4.83
2018-07-09T20:09:22.974Z,6.00
2018-07-09T20:11:50.494Z,6.57
2018-07-09T20:14:22.705Z,3.87
2018-07-09T20:16:54.927Z,2.73
2018-07-09T20:19:21.401Z,4.90
2018-07-09T20:21:47.798Z,5.33
2018-07-09T20:24:14.208Z,3.93
2018-07-09T20:26:40.639Z,2.57
2018-07-09T20:29:07.059Z,3.13
2018-07-09T20:31:33.469Z,4.40
2018-07-09T20:33:59.876Z,5.10
2018-07-09T20:36:26.363Z,3.07
2018-07-09T20:38:52.772Z,2.93
2018-07-09T20:41:19.556Z,5.57
2018-07-09T20:43:46.214Z,3.07
2018-07-09T20:46:12.657Z,5.90
2018-07-09T20:48:39.128Z,3.03
2018-07-09T20:51:05.591Z,4.37
2018-07-09T20:53:32.070Z,3.87
2018-07-09T20:55:58.582Z,4.57
2018-07-09T20:58:25.123Z,4.10
2018-07-09T21:00:51.520Z,4.27
2018-07-09T21:03:17.923Z,2.77
2018-07-09T21:05:44.375Z,6.70
2018-07-09T21:08:10.860Z,3.87
2018-07-09T21:10:37.355Z,5.27
2018-07-09T21:13:03.832Z,3.47
2018-07-09T21:15:30.301Z,6.70
2018-07-09T21:17:56.723Z,3.77
2018-07-09T21:20:23.215Z,7.13
2018-07-09T21:22:49.688Z,5.13
2018-07-09T21:25:16.912Z,7.20
2018-07-09T21:27:43.322Z,4.47
2018-07-09T21:30:09.807Z,3.20
2018-07-09T21:32:36.318Z,2.43
2018-07-09T21:35:02.736Z,3.67
2018-07-09T21:37:29.325Z,3.57
2018-07-09T21:39:55.719Z,5.27
2018-07-09T21:42:22.112Z,3.00
2018-07-09T21:44:50.461Z,3.13
2018-07-09T21:47:16.859Z,5.27
2018-07-09T21:49:43.267Z,4.60
2018-07-09T21:52:09.666Z,3.57
2018-07-09T21:54:36.074Z,4.87
2018-07-09T21:57:02.504Z,3.03
2018-07-09T21:59:28.899Z,3.70
2018-07-09T22:01:55.311Z,4.13
2018-07-09T22:04:21.722Z,4.67
2018-07-09T22:06:48.123Z,3.33
2018-07-09T22:09:14.527Z,4.00
2018-07-09T22:11:40.943Z,6.27
2018-07-09T22:14:07.339Z,3.00
2018-07-09T22:16:33.741Z,5.37
2018-07-09T22:19:00.435Z,3.30
2018-07-09T22:21:27.015Z,4.57
2018-07-09T22:23:53.417Z,2.77
2018-07-09T22:26:19.819Z,3.10
2018-07-09T22:28:46.211Z,5.70
2018-07-09T22:31:13.588Z,4.50
2018-07-09T22:33:40.987Z,4.43
2018-07-09T22:36:08.347Z,3.77
2018-07-09T22:38:35.743Z,4.73
2018-07-09T22:41:03.127Z,2.63
2018-07-09T22:43:42.092Z,4.43
2018-07-09T22:46:09.473Z,4.67
2018-07-09T22:48:36.821Z,3.07
2018-07-09T22:51:04.348Z,3.87
2018-07-09T22:53:31.672Z,2.23
2018-07-09T22:56:11.024Z,3.93
2018-07-09T22:58:39.571Z,3.10
2018-07-09T23:01:06.955Z,3.17
2018-07-09T23:03:34.984Z,4.00
2018-07-09T23:06:02.668Z,3.77
2018-07-09T23:08:30.108Z,4.77
2018-07-09T23:13:17.442Z,3.03
2018-07-09T23:16:56.210Z,4.67
2018-07-09T23:22:13.616Z,4.60
2018-07-09T23:24:40.098Z,3.63
2018-07-09T23:27:06.516Z,3.43
2018-07-09T23:29:32.978Z,5.93
2018-07-09T23:31:59.410Z,1.80
2018-07-09T23:34:25.859Z,3.27
2018-07-09T23:36:52.483Z,3.67
2018-07-09T23:39:18.923Z,6.37
2018-07-09T23:41:45.363Z,6.30
2018-07-09T23:44:11.826Z,3.20
2018-07-09T23:46:38.279Z,3.97
2018-07-09T23:49:05.253Z,4.80
2018-07-09T23:51:32.174Z,4.40
2018-07-09T23:53:58.632Z,3.53
2018-07-09T23:57:32.891Z,5.10
